Time;durP1;ratioP1;P1;durP2;ratioP2;P2;SDS_P1;SDS_P2;PMS_P1;PMS_P2;Temp;Humidity;BMP_temperature;BMP_pressure;BME280_temperature;BME280_humidity;BME280_pressure;Samples;Min_cycle;Max_cycle;Signal;HPM_P1;HPM_P2
2023/03/09 00:00:55;;;;;;;0.30;0.30;;;;;;;17.11;43.19;98576.97;5134601;27;20039;-53
2023/03/09 00:03:21;;;;;;;0.40;0.40;;;;;;;17.10;43.37;98569.03;5132463;27;20378;-53
2023/03/09 00:05:56;;;;;;;0.40;0.40;;;;;;;17.09;43.13;98565.47;5125026;27;20054;-54
2023/03/09 00:08:22;;;;;;;0.30;0.30;;;;;;;17.08;43.05;98572.09;5124842;27;20047;-54
2023/03/09 00:10:51;;;;;;;0.40;0.40;;;;;;;17.09;43.14;98570.97;5134643;27;20453;-54
2023/03/09 00:13:19;;;;;;;0.30;0.30;;;;;;;17.09;43.27;98564.66;5115999;27;20262;-53
2023/03/09 00:15:49;;;;;;;0.30;0.30;;;;;;;17.10;43.10;98567.09;5124917;27;20123;-53
2023/03/09 00:18:18;;;;;;;0.40;0.40;;;;;;;17.10;42.98;98555.28;5132287;27;20148;-52
2023/03/09 00:20:43;;;;;;;;;;;;;;;17.09;43.13;98562.72;5134532;27;20070;-54
2023/03/09 00:23:10;;;;;;;0.30;0.30;;;;;;;17.09;43.33;98557.22;5132154;27;20815;-54
2023/03/09 00:25:36;;;;;;;0.40;0.40;;;;;;;17.09;43.04;98548.97;5123209;27;20065;-54
2023/03/09 00:28:02;;;;;;;0.40;0.40;;;;;;;17.09;43.41;98556.41;5111809;28;20083;-54
2023/03/09 00:30:28;;;;;;;0.40;0.40;;;;;;;17.08;43.01;98563.06;5113274;27;20130;-54
2023/03/09 00:32:53;;;;;;;0.40;0.40;;;;;;;17.09;43.18;98565.47;5119019;27;20500;-53
2023/03/09 00:35:19;;;;;;;0.40;0.40;;;;;;;17.10;43.13;98567.09;5133193;27;20043;-54
2023/03/09 00:37:46;;;;;;;0.40;0.40;;;;;;;17.09;43.01;98562.72;5132212;27;20061;-53
2023/03/09 00:40:13;;;;;;;0.40;0.40;;;;;;;17.09;43.00;98568.22;5133450;27;20058;-53
2023/03/09 00:42:43;;;;;;;0.40;0.40;;;;;;;17.08;43.09;98560.31;5115138;27;20158;-54
2023/03/09 00:45:10;;;;;;;0.40;0.40;;;;;;;17.08;43.10;98563.84;5131435;27;20087;-53
2023/03/09 00:47:35;;;;;;;0.40;0.40;;;;;;;17.08;43.03;98565.81;5133364;27;20047;-53
2023/03/09 00:50:01;;;;;;;0.50;0.50;;;;;;;17.07;43.15;98564.19;5132106;27;20050;-54
2023/03/09 00:52:27;;;;;;;0.40;0.40;;;;;;;17.08;43.22;98568.56;5133335;27;20518;-53
2023/03/09 00:54:53;;;;;;;0.38;0.38;;;;;;;17.08;43.26;98576.81;5133610;27;20455;-54
2023/03/09 00:57:20;;;;;;;0.40;0.40;;;;;;;17.08;43.45;98568.56;5133500;27;20047;-54
2023/03/09 00:59:46;;;;;;;0.60;0.60;;;;;;;17.06;43.46;98566.13;5119043;27;20467;-53
2023/03/09 01:02:12;;;;;;;0.40;0.40;;;;;;;17.07;43.02;98566.94;5110359;27;20039;-54
2023/03/09 01:04:37;;;;;;;0.40;0.40;;;;;;;17.06;43.30;98582.63;5110983;28;20414;-54
2023/03/09 01:07:03;;;;;;;0.40;0.40;;;;;;;17.06;43.15;98582.63;5130772;27;20046;-53
2023/03/09 01:09:29;;;;;;;0.40;0.40;;;;;;;17.06;43.04;98588.13;5133047;27;20422;-54
2023/03/09 01:11:55;;;;;;;0.50;0.50;;;;;;;17.07;42.96;98592.50;5133355;27;20039;-54
2023/03/09 01:14:20;;;;;;;0.40;0.40;;;;;;;17.07;42.92;98584.25;5133257;27;20440;-53
2023/03/09 01:16:46;;;;;;;0.40;0.40;;;;;;;17.06;43.31;98582.63;5131993;27;20051;-54
2023/03/09 01:19:12;;;;;;;0.40;0.40;;;;;;;17.06;43.28;98579.88;5132422;27;20230;-54
2023/03/09 01:21:37;;;;;;;0.40;0.40;;;;;;;17.04;43.39;98588.44;5131391;27;20043;-53
2023/03/09 01:24:04;;;;;;;0.30;0.30;;;;;;;17.05;43.13;98592.84;5132546;27;20426;-53
2023/03/09 01:26:29;;;;;;;0.40;0.40;;;;;;;17.06;43.38;98596.38;5125203;27;20085;-54
2023/03/09 01:28:55;;;;;;;0.40;0.40;;;;;;;17.06;42.96;98599.13;5127851;27;20261;-54
2023/03/09 01:31:21;;;;;;;0.40;0.40;;;;;;;17.07;43.41;98605.44;5132940;27;20397;-53
2023/03/09 01:33:47;;;;;;;0.30;0.30;;;;;;;17.06;43.24;98604.63;5130802;27;20057;-53
2023/03/09 01:36:15;;;;;;;0.32;0.32;;;;;;;17.06;43.26;98610.13;5131223;27;20171;-54
2023/03/09 01:38:40;;;;;;;0.40;0.40;;;;;;;17.05;43.01;98612.09;5127466;27;20050;-54
2023/03/09 01:41:06;;;;;;;0.40;0.40;;;;;;;17.05;43.09;98636.00;5131476;27;20099;-53
2023/03/09 01:43:39;;;;;;;0.40;0.40;;;;;;;17.04;43.30;98637.94;5132599;27;20410;-53
2023/03/09 01:49:18;;;;;;;0.40;0.40;;;;;;;17.06;43.29;98629.38;5171475;27;20124;-51
2023/03/09 01:51:56;;;;;;;0.30;0.30;;;;;;;17.07;43.40;98635.69;5118877;27;20070;-51
2023/03/09 01:54:27;;;;;;;0.50;0.50;;;;;;;17.05;43.12;98652.50;5151136;27;20043;-52
2023/03/09 01:56:56;;;;;;;0.52;0.52;;;;;;;17.05;43.38;98655.25;5128227;27;20100;-51
2023/03/09 01:59:25;;;;;;;0.40;0.40;;;;;;;17.05;43.31;98656.06;5149356;27;20038;-51
2023/03/09 02:01:51;;;;;;;0.40;0.40;;;;;;;17.04;43.45;98670.13;5150661;27;20477;-50
2023/03/09 02:04:22;;;;;;;0.63;0.60;;;;;;;17.06;43.19;98676.13;5150796;27;20042;-51
2023/03/09 02:06:48;;;;;;;0.40;0.40;;;;;;;17.05;43.13;98691.81;5150002;27;20141;-50
2023/03/09 02:11:56;;;;;;;0.40;0.40;;;;;;;17.05;43.46;98699.25;5171987;27;20123;-50
2023/03/09 02:14:23;;;;;;;0.73;0.73;;;;;;;17.05;43.15;98707.50;5131922;27;20195;-51
2023/03/09 02:16:48;;;;;;;0.40;0.40;;;;;;;17.05;43.51;98704.75;5150256;27;20067;-51
2023/03/09 02:19:33;;;;;;;0.40;0.40;;;;;;;17.05;43.46;98710.25;5150532;27;20051;-50
2023/03/09 02:21:59;;;;;;;0.40;0.40;;;;;;;17.05;43.41;98715.75;5133956;27;20440;-52
2023/03/09 02:27:16;;;;;;;0.40;0.40;;;;;;;17.05;43.51;98718.50;5171115;27;20120;-51
2023/03/09 02:29:42;;;;;;;0.30;0.30;;;;;;;17.04;43.44;98725.13;5127789;27;20252;-51
2023/03/09 02:32:07;;;;;;;0.40;0.40;;;;;;;17.05;43.33;98727.56;5116417;27;20070;-50
2023/03/09 02:34:33;;;;;;;0.30;0.30;;;;;;;17.04;43.11;98738.88;5109215;27;20058;-52
2023/03/09 02:36:59;;;;;;;0.40;0.40;;;;;;;17.04;43.43;98745.19;5126038;27;20058;-50
2023/03/09 02:39:45;;;;;;;0.30;0.30;;;;;;;17.04;43.41;98749.88;5129319;27;20046;-51
2023/03/09 02:42:11;;;;;;;0.30;0.30;;;;;;;17.03;43.18;98754.56;5114173;27;20490;-52
2023/03/09 02:44:37;;;;;;;0.40;0.40;;;;;;;17.04;43.40;98764.44;5129673;27;20053;-51
2023/03/09 02:47:08;;;;;;;0.38;0.38;;;;;;;17.05;43.49;98762.50;5129219;27;20127;-51
2023/03/09 02:49:34;;;;;;;0.30;0.30;;;;;;;17.03;43.25;98765.56;5093702;27;20047;-53
2023/03/09 02:52:01;;;;;;;0.40;0.40;;;;;;;17.02;43.49;98768.66;5129039;27;20043;-52
2023/03/09 02:54:26;;;;;;;0.35;0.35;;;;;;;17.04;43.25;98769.94;5129546;27;20276;-51
2023/03/09 02:56:52;;;;;;;0.40;0.40;;;;;;;17.04;43.27;98761.69;5129060;27;20268;-51
2023/03/09 02:59:18;;;;;;;0.40;0.40;;;;;;;17.04;43.24;98766.38;5129083;27;20043;-51
2023/03/09 03:01:43;;;;;;;0.35;0.35;;;;;;;17.04;43.48;98772.69;5128871;27;20054;-50
2023/03/09 03:04:09;;;;;;;0.50;0.50;;;;;;;17.04;43.05;98769.13;5129206;27;20205;-51
2023/03/09 03:06:35;;;;;;;0.40;0.40;;;;;;;17.05;43.51;98781.75;5128981;27;20051;-51
2023/03/09 03:09:00;;;;;;;0.30;0.30;;;;;;;17.04;43.18;98777.38;5106099;28;20483;-51
2023/03/09 03:11:26;;;;;;;0.30;0.30;;;;;;;17.04;43.34;98789.19;5108610;28;20047;-51
2023/03/09 03:13:54;;;;;;;0.40;0.40;;;;;;;17.04;43.31;98791.13;5108593;28;20641;-51
2023/03/09 03:16:20;;;;;;;0.20;0.20;;;;;;;17.03;43.08;98790.31;5121294;27;20081;-52
2023/03/09 03:18:46;;;;;;;0.30;0.30;;;;;;;17.04;43.22;98785.63;5129059;27;20043;-51
2023/03/09 03:21:12;;;;;;;0.30;0.30;;;;;;;17.03;43.08;98790.31;5128820;27;20087;-51
2023/03/09 03:23:38;;;;;;;0.40;0.40;;;;;;;17.04;43.31;98800.19;5128543;27;20043;-51
2023/03/09 03:26:07;;;;;;;0.60;0.60;;;;;;;17.04;43.16;98810.38;5128848;27;20082;-50
2023/03/09 03:28:32;;;;;;;0.40;0.40;;;;;;;17.03;43.59;98817.00;5128825;27;20430;-51
2023/03/09 03:30:58;;;;;;;0.40;0.40;;;;;;;17.03;43.19;98817.00;5128498;27;20526;-52
2023/03/09 03:33:24;;;;;;;0.38;0.38;;;;;;;17.03;43.39;98817.00;5109973;27;20602;-50
2023/03/09 03:35:50;;;;;;;0.40;0.40;;;;;;;17.03;43.49;98826.06;5128730;27;20133;-51
2023/03/09 03:38:15;;;;;;;0.30;0.30;;;;;;;17.04;43.43;98835.13;5115835;27;20554;-50
2023/03/09 03:40:41;;;;;;;0.35;0.35;;;;;;;17.03;43.45;98830.75;5113397;28;20044;-51
2023/03/09 03:43:07;;;;;;;0.47;0.47;;;;;;;17.03;43.12;98833.50;5096264;28;20054;-51
2023/03/09 03:45:32;;;;;;;0.38;0.38;;;;;;;17.03;43.47;98826.06;5114492;28;20057;-50
2023/03/09 03:47:58;;;;;;;0.47;0.47;;;;;;;17.04;43.07;98835.13;5114337;28;20050;-52
2023/03/09 03:50:24;;;;;;;0.30;0.30;;;;;;;17.04;43.49;98849.69;5114160;28;20046;-51
2023/03/09 03:52:49;;;;;;;0.40;0.40;;;;;;;17.03;43.41;98861.81;5114091;28;20130;-51
2023/03/09 03:55:15;;;;;;;0.40;0.40;;;;;;;17.02;43.32;98857.44;5114289;28;20057;-51
2023/03/09 03:57:41;;;;;;;0.30;0.30;;;;;;;17.03;43.26;98861.00;5114538;28;20043;-51
2023/03/09 04:00:10;;;;;;;0.40;0.40;;;;;;;17.03;43.47;98870.06;5114135;28;20043;-51
2023/03/09 04:02:38;;;;;;;0.40;0.40;;;;;;;17.03;43.06;98877.50;5096354;28;20046;-51
2023/03/09 04:05:04;;;;;;;0.30;0.30;;;;;;;17.03;43.54;98867.31;5096289;28;20365;-50
2023/03/09 04:07:30;;;;;;;0.40;0.40;;;;;;;17.03;43.60;98866.50;5092365;28;20515;-51
2023/03/09 04:09:56;;;;;;;0.30;0.30;;;;;;;17.02;43.37;98860.19;5113404;28;20502;-51
2023/03/09 04:12:21;;;;;;;0.40;0.40;;;;;;;17.03;43.25;98867.31;5114060;28;20039;-52
2023/03/09 04:14:47;;;;;;;0.40;0.40;;;;;;;17.03;43.41;98863.75;5095335;28;20442;-50
2023/03/09 04:17:13;;;;;;;0.40;0.40;;;;;;;17.04;43.22;98887.38;5113884;28;20256;-52
2023/03/09 04:19:39;;;;;;;0.55;0.55;;;;;;;17.02;43.17;98892.38;5114765;28;20463;-50
2023/03/09 04:22:06;;;;;;;0.52;0.45;;;;;;;17.02;43.59;98893.19;5113817;28;20922;-52
2023/03/09 04:24:32;;;;;;;0.40;0.40;;;;;;;17.03;43.16;98902.25;5101066;28;20352;-50
2023/03/09 04:26:58;;;;;;;0.40;0.40;;;;;;;17.04;43.36;98903.88;5113124;28;20383;-51
2023/03/09 04:29:24;;;;;;;0.40;0.40;;;;;;;17.03;43.33;98913.25;5114473;28;20051;-51
2023/03/09 04:31:50;;;;;;;0.30;0.30;;;;;;;17.02;43.55;98912.44;5094276;28;20055;-51
2023/03/09 04:34:15;;;;;;;0.35;0.35;;;;;;;17.03;43.41;98918.75;5113156;28;20081;-51
2023/03/09 04:36:41;;;;;;;0.40;0.40;;;;;;;17.03;43.14;98924.25;5113327;28;20051;-51
2023/03/09 04:39:07;;;;;;;0.40;0.40;;;;;;;17.02;43.38;98923.44;5113761;28;20047;-51
2023/03/09 04:41:33;;;;;;;0.40;0.40;;;;;;;17.02;43.42;98928.94;5095282;28;20040;-51
2023/03/09 04:43:59;;;;;;;0.32;0.32;;;;;;;17.03;43.48;98925.06;5095514;28;20066;-51
2023/03/09 04:46:25;;;;;;;0.40;0.40;;;;;;;17.02;43.10;98920.69;5112619;28;20100;-51
2023/03/09 04:48:50;;;;;;;0.40;0.40;;;;;;;17.02;43.13;98923.44;5086075;28;20508;-51
2023/03/09 04:51:16;;;;;;;0.43;0.43;;;;;;;17.03;43.52;98924.25;5093076;28;20048;-51
2023/03/09 04:53:42;;;;;;;0.30;0.30;;;;;;;17.02;43.59;98928.13;5092549;28;20047;-52
2023/03/09 04:56:08;;;;;;;0.40;0.40;;;;;;;17.02;43.60;98936.38;5103081;28;20043;-51
2023/03/09 04:58:33;;;;;;;0.38;0.38;;;;;;;17.03;43.50;98938.00;5113503;28;20450;-50
2023/03/09 05:01:00;;;;;;;0.40;0.40;;;;;;;17.02;43.25;98944.63;5091863;28;20064;-51
2023/03/09 05:03:27;;;;;;;0.40;0.40;;;;;;;17.03;43.38;98954.50;5133208;27;20046;-52
2023/03/09 05:05:52;;;;;;;0.30;0.30;;;;;;;17.02;43.14;98959.19;5125244;27;20225;-51
2023/03/09 05:08:18;;;;;;;0.30;0.30;;;;;;;17.02;43.33;98950.13;5112663;28;20043;-51
2023/03/09 05:10:44;;;;;;;0.30;0.30;;;;;;;17.02;43.44;98941.88;5113510;28;20198;-51
2023/03/09 05:13:10;;;;;;;0.38;0.38;;;;;;;17.03;43.40;98943.50;5077676;28;20043;-52
2023/03/09 05:15:38;;;;;;;0.40;0.40;;;;;;;17.01;43.00;98940.25;5112468;28;20047;-51
2023/03/09 05:18:04;;;;;;;0.40;0.40;;;;;;;17.01;43.44;98951.25;5113061;28;20135;-51
2023/03/09 05:20:31;;;;;;;0.40;0.40;;;;;;;17.02;43.65;98950.13;5113577;28;20683;-51
2023/03/09 05:22:57;;;;;;;0.35;0.35;;;;;;;17.01;43.31;98965.84;5112555;28;20070;-51
2023/03/09 05:25:23;;;;;;;0.35;0.35;;;;;;;17.02;43.25;98980.38;5094844;28;20068;-50
2023/03/09 05:27:49;;;;;;;0.30;0.30;;;;;;;17.01;43.16;98985.09;5113190;28;20113;-52
2023/03/09 05:30:15;;;;;;;0.30;0.30;;;;;;;17.01;43.18;98987.81;5113026;28;20471;-51
2023/03/09 05:32:41;;;;;;;0.40;0.40;;;;;;;17.01;43.58;98990.59;5112288;27;20268;-51
2023/03/09 05:35:07;;;;;;;0.30;0.30;;;;;;;17.01;43.15;98990.59;5112015;28;20155;-51
2023/03/09 05:37:33;;;;;;;0.30;0.30;;;;;;;17.01;43.61;98987.81;5090038;28;20495;-50
2023/03/09 05:39:59;;;;;;;0.40;0.40;;;;;;;17.01;43.50;98987.81;5077636;28;20044;-52
2023/03/09 05:42:24;;;;;;;0.38;0.38;;;;;;;17.01;43.41;98993.34;5073538;28;20490;-51
2023/03/09 05:44:50;;;;;;;0.40;0.40;;;;;;;17.01;43.09;98998.84;5111321;28;20479;-52
2023/03/09 05:47:16;;;;;;;0.40;0.40;;;;;;;17.02;43.49;98994.94;5109913;28;20163;-51
2023/03/09 05:49:41;;;;;;;0.40;0.40;;;;;;;17.01;43.31;99001.59;5108473;28;20035;-51
2023/03/09 05:52:07;;;;;;;0.40;0.40;;;;;;;17.01;43.23;99015.31;5111677;27;20047;-50
2023/03/09 05:54:33;;;;;;;0.30;0.30;;;;;;;17.01;43.62;99015.31;5115295;27;20290;-51
2023/03/09 05:56:59;;;;;;;0.40;0.40;;;;;;;17.02;43.62;99013.38;5110332;27;20042;-52
2023/03/09 05:59:24;;;;;;;0.40;0.40;;;;;;;17.01;43.46;99020.84;5107519;27;20653;-51
2023/03/09 06:01:50;;;;;;;0.38;0.38;;;;;;;17.02;43.53;99032.63;5110571;27;20043;-52
2023/03/09 06:04:16;;;;;;;0.40;0.40;;;;;;;17.00;43.24;99040.38;5088923;28;20051;-52
2023/03/09 06:06:41;;;;;;;0.40;0.40;;;;;;;17.06;43.58;99055.66;5103231;27;20039;-52
2023/03/09 06:09:07;;;;;;;0.40;0.40;;;;;;;17.08;44.34;99047.06;5107475;28;20043;-52
2023/03/09 06:11:33;;;;;;;0.30;0.30;;;;;;;17.05;44.32;99049.34;5110057;28;20092;-52
2023/03/09 06:13:58;;;;;;;0.30;0.30;;;;;;;17.02;44.22;99058.19;5087088;28;20050;-52
2023/03/09 06:16:24;;;;;;;1.10;0.52;;;;;;;17.02;44.44;99055.44;5110114;28;20058;-51
2023/03/09 06:18:50;;;;;;;0.30;0.30;;;;;;;17.00;44.27;99052.19;5087460;28;20357;-52
2023/03/09 06:21:16;;;;;;;0.40;0.40;;;;;;;17.01;43.99;99050.25;5081531;28;20050;-51
2023/03/09 06:23:41;;;;;;;0.40;0.40;;;;;;;17.02;44.32;99049.94;5091399;28;20047;-51
2023/03/09 06:26:10;;;;;;;0.30;0.30;;;;;;;17.03;43.90;99056.25;5100955;28;20039;-53
2023/03/09 06:28:36;;;;;;;;;;;;;;;17.02;44.41;99058.19;5105742;28;20321;-52
2023/03/09 06:31:06;;;;;;;0.32;0.32;;;;;;;17.02;44.38;99060.94;5110553;27;20296;-52
2023/03/09 06:33:32;;;;;;;0.50;0.50;;;;;;;17.02;43.96;99060.13;5092008;28;20050;-52
2023/03/09 06:36:00;;;;;;;0.30;0.30;;;;;;;17.02;44.21;99057.38;5082563;28;20055;-53
2023/03/09 06:38:26;;;;;;;0.30;0.30;;;;;;;17.01;43.91;99051.09;5093384;28;20043;-51
2023/03/09 06:40:54;;;;;;;0.40;0.40;;;;;;;17.03;44.06;99054.31;5109782;28;20143;-53
2023/03/09 06:43:20;;;;;;;0.40;0.40;;;;;;;17.06;44.35;99061.16;5100009;28;20597;-51
2023/03/09 06:45:46;;;;;;;0.40;0.40;;;;;;;17.07;43.98;99060.00;5110049;28;20362;-51
2023/03/09 06:48:12;;;;;;;0.40;0.40;;;;;;;17.05;44.10;99059.50;5086765;28;20104;-52
2023/03/09 06:50:38;;;;;;;0.30;0.30;;;;;;;17.04;43.92;99066.94;5108905;28;20622;-52
2023/03/09 06:53:03;;;;;;;0.40;0.40;;;;;;;17.05;44.20;99067.75;5102020;28;20067;-52
2023/03/09 06:55:29;;;;;;;0.40;0.40;;;;;;;17.04;43.77;99061.44;5096291;28;20270;-52
2023/03/09 06:57:55;;;;;;;0.30;0.30;;;;;;;17.04;43.71;99074.38;5102063;28;20070;-52
2023/03/09 07:00:21;;;;;;;0.40;0.40;;;;;;;17.05;43.87;99087.84;5102965;27;20038;-52
2023/03/09 07:02:46;;;;;;;0.57;0.47;;;;;;;17.05;44.13;99082.34;5102756;27;20043;-50
2023/03/09 07:05:13;;;;;;;0.50;0.50;;;;;;;17.04;43.82;99077.94;5096434;28;20056;-51
2023/03/09 07:07:39;;;;;;;0.50;0.45;;;;;;;17.04;43.94;99085.38;5074898;28;20507;-52
2023/03/09 07:10:05;;;;;;;0.40;0.40;;;;;;;17.05;44.08;99089.75;5099854;28;20283;-52
2023/03/09 07:12:31;;;;;;;0.40;0.40;;;;;;;17.03;43.95;99092.81;5079732;28;20253;-52
2023/03/09 07:14:57;;;;;;;0.30;0.30;;;;;;;17.03;44.03;99095.56;5085453;28;20047;-52
2023/03/09 07:17:22;;;;;;;0.40;0.40;;;;;;;17.05;43.78;99104.34;5103397;28;20051;-50
2023/03/09 07:19:48;;;;;;;0.35;0.35;;;;;;;17.04;44.10;99104.63;5106695;28;20043;-52
2023/03/09 07:22:14;;;;;;;0.40;0.40;;;;;;;17.05;44.03;99111.75;5097658;28;20042;-52
2023/03/09 07:24:39;;;;;;;0.40;0.40;;;;;;;17.05;44.03;99109.84;5103951;28;20100;-51
2023/03/09 07:27:07;;;;;;;0.40;0.40;;;;;;;17.07;43.68;99136.22;5108214;28;20052;-52
2023/03/09 07:29:32;;;;;;;0.30;0.30;;;;;;;17.05;43.79;99131.84;5103737;28;20066;-52
2023/03/09 07:32:01;;;;;;;0.30;0.30;;;;;;;17.05;43.82;99145.59;5102282;28;20072;-52
2023/03/09 07:34:27;;;;;;;0.30;0.30;;;;;;;17.06;44.21;99149.16;5088562;27;20054;-52
2023/03/09 07:36:53;;;;;;;0.40;0.40;;;;;;;17.05;43.85;99148.34;5105401;27;20047;-52
2023/03/09 07:39:18;;;;;;;0.30;0.30;;;;;;;17.11;44.09;99151.78;5105397;27;20461;-54
2023/03/09 07:41:44;;;;;;;0.32;0.32;;;;;;;17.16;45.05;99148.91;5107834;28;20046;-49
2023/03/09 07:44:10;;;;;;;0.32;0.32;;;;;;;17.22;45.69;99155.09;5102390;27;20051;-57
2023/03/09 07:46:35;;;;;;;0.40;0.40;;;;;;;17.28;45.56;99151.94;5098988;27;20513;-40
2023/03/09 07:49:01;;;;;;;0.45;0.45;;;;;;;17.28;45.62;99162.13;5079807;28;20059;-39
2023/03/09 07:51:27;;;;;;;0.30;0.30;;;;;;;17.29;45.54;99167.31;5086745;28;20080;-40
2023/03/09 07:53:52;;;;;;;0.32;0.32;;;;;;;17.29;45.32;99169.25;5100077;27;20051;-41
2023/03/09 07:56:18;;;;;;;0.30;0.30;;;;;;;17.28;45.48;99182.19;5097369;28;20042;-42
2023/03/09 07:58:45;;;;;;;0.30;0.30;;;;;;;17.29;45.40;99194.81;5097925;27;20045;-42
2023/03/09 08:01:14;;;;;;;0.40;0.40;;;;;;;17.29;45.10;99199.50;5099251;27;20107;-41
2023/03/09 08:03:40;;;;;;;;;;;;;;;17.30;45.41;99217.63;5075360;28;20067;-40
2023/03/09 08:06:05;;;;;;;0.30;0.30;;;;;;;17.29;44.91;99218.78;5098923;27;20251;-40
2023/03/09 08:08:32;;;;;;;0.30;0.30;;;;;;;17.28;45.17;99220.72;5070314;27;20691;-39
2023/03/09 08:10:58;;;;;;;0.47;0.47;;;;;;;17.30;45.02;99228.66;5064628;28;20101;-39
2023/03/09 08:13:25;;;;;;;0.40;0.40;;;;;;;17.30;44.93;99234.16;5074268;27;20185;-41
2023/03/09 08:15:51;;;;;;;0.35;0.35;;;;;;;17.30;44.94;99234.16;5086336;27;20201;-42
2023/03/09 08:18:17;;;;;;;0.40;0.40;;;;;;;17.30;44.84;99239.66;5080187;28;20475;-41
2023/03/09 08:20:43;;;;;;;0.40;0.40;;;;;;;17.30;44.95;99234.97;5083003;27;20447;-41
2023/03/09 08:23:09;;;;;;;0.30;0.30;;;;;;;17.31;44.98;99238.53;5062113;27;20567;-40
2023/03/09 08:25:35;;;;;;;0.30;0.30;;;;;;;17.30;44.72;99234.97;5085172;27;20086;-40
2023/03/09 08:28:01;;;;;;;0.35;0.35;;;;;;;17.31;44.80;99241.28;5101185;27;20779;-40
2023/03/09 08:30:26;;;;;;;0.32;0.32;;;;;;;17.32;44.68;99247.63;5103543;27;20077;-41
2023/03/09 08:32:53;;;;;;;0.30;0.30;;;;;;;17.32;44.60;99258.63;5082629;27;20143;-40
2023/03/09 08:35:22;;;;;;;0.40;0.40;;;;;;;17.31;44.75;99260.53;5104862;27;20055;-43
2023/03/09 08:37:48;;;;;;;0.30;0.30;;;;;;;17.32;44.63;99267.69;5074471;28;20060;-40
2023/03/09 08:40:14;;;;;;;0.40;0.40;;;;;;;17.31;44.58;99263.28;5108047;27;20149;-41
2023/03/09 08:42:40;;;;;;;0.40;0.40;;;;;;;17.31;44.46;99268.78;5104714;27;20043;-40
2023/03/09 08:45:07;;;;;;;0.30;0.30;;;;;;;17.33;44.98;99271.25;5109509;27;20392;-40
2023/03/09 08:47:33;;;;;;;0.30;0.30;;;;;;;17.34;45.07;99278.38;5109326;28;20513;-38
2023/03/09 08:49:59;;;;;;;0.40;0.40;;;;;;;17.32;45.18;99281.44;5102791;27;20054;-39
2023/03/09 08:52:24;;;;;;;0.45;0.45;;;;;;;17.34;45.04;99281.94;5101686;27;20039;-39
2023/03/09 08:54:50;;;;;;;0.30;0.30;;;;;;;17.34;44.93;99286.63;5093837;27;20055;-40
2023/03/09 08:57:16;;;;;;;0.40;0.40;;;;;;;17.35;44.52;99293.75;5107073;27;20051;-41
2023/03/09 08:59:42;;;;;;;0.40;0.40;;;;;;;17.34;44.87;99294.88;5104239;27;20546;-41
2023/03/09 09:02:14;;;;;;;0.40;0.40;;;;;;;17.34;44.87;99300.38;5096369;27;20141;-39
2023/03/09 09:04:41;;;;;;;0.30;0.30;;;;;;;17.35;44.85;99311.06;5081522;27;20055;-39
2023/03/09 09:07:07;;;;;;;0.30;0.30;;;;;;;17.34;44.64;99311.41;5099922;27;20078;-40
2023/03/09 09:09:33;;;;;;;0.30;0.30;;;;;;;17.35;44.63;99318.53;5093963;27;20065;-40
2023/03/09 09:11:59;;;;;;;0.30;0.30;;;;;;;17.34;44.75;99325.97;5101504;27;20051;-40
2023/03/09 09:14:25;;;;;;;0.57;0.57;;;;;;;17.36;44.69;99329.25;5079201;27;20262;-37
2023/03/09 09:16:51;;;;;;;0.40;0.40;;;;;;;17.39;44.71;99339.63;5099195;27;20552;-37
2023/03/09 09:19:17;;;;;;;0.40;0.40;;;;;;;17.32;44.64;99336.47;5106919;27;20043;-39
2023/03/09 09:21:43;;;;;;;0.52;0.52;;;;;;;17.30;44.94;99333.19;5078472;28;20170;-39
2023/03/09 09:24:09;;;;;;;0.40;0.40;;;;;;;17.31;44.95;99348.59;5090154;27;20482;-39
2023/03/09 09:26:34;;;;;;;0.30;0.30;;;;;;;17.32;44.98;99343.91;5093613;27;20079;-39
2023/03/09 09:29:01;;;;;;;0.50;0.50;;;;;;;17.32;44.83;99341.16;5098500;27;20053;-39
2023/03/09 09:31:27;;;;;;;0.40;0.40;;;;;;;17.30;44.78;99339.50;5092016;27;21532;-40
2023/03/09 09:33:54;;;;;;;0.40;0.40;;;;;;;17.30;44.45;99345.03;5086923;27;20443;-40
2023/03/09 09:36:19;;;;;;;4.28;0.75;;;;;;;17.31;44.33;99343.06;5085548;27;20047;-39
2023/03/09 09:38:46;;;;;;;0.40;0.40;;;;;;;17.30;44.66;99350.53;5085592;27;20061;-39
2023/03/09 09:41:25;;;;;;;0.35;0.35;;;;;;;17.32;44.79;99347.47;5074870;28;20413;-39
2023/03/09 09:43:55;;;;;;;0.40;0.40;;;;;;;17.33;44.61;99345.53;5062331;27;20333;-39
2023/03/09 09:46:21;;;;;;;0.30;0.30;;;;;;;17.33;44.54;99353.81;5086904;27;20682;-39
2023/03/09 09:48:48;;;;;;;0.40;0.40;;;;;;;17.32;44.70;99350.25;5079868;27;20099;-40
2023/03/09 09:51:38;;;;;;;0.40;0.40;;;;;;;17.32;44.55;99339.22;5083032;28;20047;-39
2023/03/09 09:54:20;;;;;;;0.38;0.38;;;;;;;17.32;44.70;99341.97;5076141;28;20093;-39
2023/03/09 09:56:48;;;;;;;0.30;0.30;;;;;;;17.32;44.51;99343.91;5100651;27;20512;-40
2023/03/09 09:59:20;;;;;;;0.20;0.20;;;;;;;17.33;44.71;99354.59;5102375;27;20047;-40
2023/03/09 10:02:17;;;;;;;0.40;0.40;;;;;;;17.33;44.66;99365.63;5081697;28;21565;-40
2023/03/09 10:04:46;;;;;;;0.32;0.32;;;;;;;17.34;44.68;99377.44;5103122;27;21372;-40
2023/03/09 10:07:15;;;;;;;0.30;0.30;;;;;;;17.35;44.75;99373.56;5099017;27;20106;-40
2023/03/09 10:09:44;;;;;;;0.30;0.30;;;;;;;17.34;44.80;99386.50;5097884;27;20046;-40
2023/03/09 10:12:18;;;;;;;0.30;0.30;;;;;;;17.35;44.61;99390.88;5082593;27;20082;-40
2023/03/09 10:14:54;;;;;;;0.30;0.30;;;;;;;17.35;44.69;99390.88;5102737;27;20498;-42
2023/03/09 10:17:31;;;;;;;0.30;0.30;;;;;;;17.36;44.77;99395.28;5087701;28;20597;-40
2023/03/09 10:20:02;;;;;;;0.30;0.30;;;;;;;17.37;44.71;99398.84;5085885;28;20142;-40
2023/03/09 10:22:28;;;;;;;0.32;0.32;;;;;;;17.37;44.64;99399.66;5104306;27;20078;-39
2023/03/09 10:24:55;;;;;;;0.40;0.40;;;;;;;17.36;44.65;99395.28;5102109;27;20554;-39
2023/03/09 10:27:30;;;;;;;0.30;0.30;;;;;;;17.36;44.71;99395.28;5084335;28;20063;-40
2023/03/09 10:30:20;;;;;;;0.40;0.40;;;;;;;17.36;44.58;99394.44;5097442;27;20066;-40
2023/03/09 10:32:51;;;;;;;0.40;0.40;;;;;;;17.35;44.53;99401.88;5075644;27;21110;-39
2023/03/09 10:35:26;;;;;;;0.40;0.40;;;;;;;17.35;44.47;99401.88;5087943;27;20044;-40
2023/03/09 10:37:52;;;;;;;0.40;0.40;;;;;;;17.35;44.60;99396.38;5097207;27;20478;-39
2023/03/09 10:40:22;;;;;;;0.40;0.40;;;;;;;17.35;44.66;99415.63;5086954;27;20047;-39
2023/03/09 10:42:47;;;;;;;0.30;0.30;;;;;;;17.35;44.79;99412.88;5067989;27;20075;-40
2023/03/09 10:45:24;;;;;;;0.30;0.30;;;;;;;17.40;45.26;99411.97;5096845;27;20128;-39
2023/03/09 10:48:06;;;;;;;0.40;0.40;;;;;;;17.39;44.66;99418.59;5095411;27;20417;-41
2023/03/09 10:50:36;;;;;;;0.40;0.40;;;;;;;17.38;44.83;99417.78;5085545;28;20597;-40
2023/03/09 10:53:25;;;;;;;0.30;0.30;;;;;;;17.39;44.45;99416.66;5105695;27;20047;-39
2023/03/09 10:55:53;;;;;;;0.30;0.30;;;;;;;17.40;44.67;99406.47;5071033;27;20502;-39
2023/03/09 10:58:31;;;;;;;0.30;0.30;;;;;;;17.38;44.37;99416.97;5108954;27;20403;-39
2023/03/09 11:01:02;;;;;;;0.40;0.40;;;;;;;17.41;44.74;99413.63;5089139;27;20051;-39
2023/03/09 11:03:35;;;;;;;0.40;0.40;;;;;;;17.41;44.45;99405.38;5076362;27;20086;-39
2023/03/09 11:06:22;;;;;;;0.30;0.30;;;;;;;17.40;44.85;99396.31;5085918;28;20357;-40
2023/03/09 11:08:59;;;;;;;0.40;0.40;;;;;;;17.40;44.48;99406.47;5100536;27;20426;-39
2023/03/09 11:11:42;;;;;;;0.40;0.40;;;;;;;17.41;44.72;99419.13;5068534;28;20059;-40
2023/03/09 11:14:26;;;;;;;0.30;0.30;;;;;;;17.39;44.67;99419.41;5087842;28;20043;-40
2023/03/09 11:16:55;;;;;;;0.30;0.30;;;;;;;17.40;44.52;99417.47;5086802;27;20291;-39
2023/03/09 11:19:22;;;;;;;0.43;0.43;;;;;;;17.39;44.58;99416.66;5072481;27;20051;-39
2023/03/09 11:22:10;;;;;;;0.30;0.30;;;;;;;17.41;44.81;99427.38;5106557;27;20126;-39
2023/03/09 11:24:44;;;;;;;0.20;0.20;;;;;;;17.40;44.71;99426.56;5082477;27;20043;-39
2023/03/09 11:27:28;;;;;;;0.30;0.30;;;;;;;17.40;44.75;99423.81;5079807;27;20151;-39
2023/03/09 11:30:04;;;;;;;0.35;0.35;;;;;;;17.38;44.38;99430.75;5107327;27;20050;-38
2023/03/09 11:32:30;;;;;;;0.35;0.35;;;;;;;17.44;44.58;99438.59;5088918;28;20113;-39
2023/03/09 11:34:56;;;;;;;0.30;0.30;;;;;;;17.43;44.57;99420.44;5100756;27;20475;-39
2023/03/09 11:37:44;;;;;;;0.40;0.40;;;;;;;17.43;44.67;99425.94;5084966;27;20116;-39
2023/03/09 11:40:14;;;;;;;0.40;0.40;;;;;;;17.43;44.63;99434.19;5087974;28;20142;-39
2023/03/09 11:43:04;;;;;;;0.38;0.38;;;;;;;17.43;44.43;99428.69;5096801;27;20980;-39
2023/03/09 11:45:32;;;;;;;0.30;0.30;;;;;;;17.43;44.84;99439.69;5081255;27;20115;-39